SBI2505 UWSG-UUDD
Flight info
| Callsign | SBI2505 |
|---|---|
| Flight time | N/A |
| Altitude | 33000 |
| Route | SOKUR T661 GEKPA L736 OLOPI |
| Aircraft | A20N/M-V/N |
Departure
| Time | 2026-04-28 14:30 |
|---|---|
| Airport | Gagarin International Airport (UWSG) |
Arrival
| Time | N/A |
|---|---|
| Airport | Domodedovo International Airport (UUDD) |
| Time | Latitude | Longitude | Altitude | Speed | Heading |
|---|---|---|---|---|---|
| 2026-04-28 14:22 | 51.71721 | 46.16951 | 111 ft | 1 kts | 2° |
| 2026-04-28 14:22 | 51.71720 | 46.16951 | 111 ft | 1 kts | 2° |
| 2026-04-28 14:22 | 51.71696 | 46.16949 | 110 ft | 4 kts | 4° |
| 2026-04-28 14:22 | 51.71669 | 46.16945 | 109 ft | 4 kts | 8° |
| 2026-04-28 14:23 | 51.71643 | 46.16936 | 109 ft | 3 kts | 18° |
| 2026-04-28 14:23 | 51.71639 | 46.16934 | 109 ft | 1 kts | 19° |
| 2026-04-28 14:25 | 51.71640 | 46.16934 | 109 ft | 1 kts | 19° |
| 2026-04-28 14:25 | 51.71645 | 46.16943 | 109 ft | 2 kts | 49° |
| 2026-04-28 14:25 | 51.71646 | 46.16959 | 110 ft | 3 kts | 100° |
| 2026-04-28 14:25 | 51.71631 | 46.17108 | 111 ft | 8 kts | 91° |
| 2026-04-28 14:26 | 51.71629 | 46.17217 | 110 ft | 13 kts | 91° |
| 2026-04-28 14:26 | 51.71588 | 46.17308 | 110 ft | 9 kts | 143° |
| 2026-04-28 14:26 | 51.71528 | 46.17382 | 110 ft | 12 kts | 143° |
| 2026-04-28 14:26 | 51.71441 | 46.17420 | 110 ft | 14 kts | 182° |
| 2026-04-28 14:27 | 51.71334 | 46.17411 | 110 ft | 17 kts | 183° |
| 2026-04-28 14:27 | 51.71259 | 46.17499 | 110 ft | 14 kts | 88° |
| 2026-04-28 14:27 | 51.71256 | 46.17677 | 110 ft | 17 kts | 91° |
| 2026-04-28 14:27 | 51.71253 | 46.17882 | 110 ft | 20 kts | 91° |
| 2026-04-28 14:28 | 51.71243 | 46.18127 | 107 ft | 25 kts | 93° |
| 2026-04-28 14:28 | 51.71234 | 46.18492 | 108 ft | 41 kts | 92° |
| 2026-04-28 14:28 | 51.71222 | 46.18977 | 109 ft | 44 kts | 89° |
| 2026-04-28 14:28 | 51.71238 | 46.19214 | 111 ft | 4 kts | 134° |
| 2026-04-28 14:29 | 51.71225 | 46.19202 | 111 ft | 3 kts | 223° |
| 2026-04-28 14:29 | 51.71217 | 46.19152 | 110 ft | 6 kts | 272° |
| 2026-04-28 14:29 | 51.71217 | 46.19129 | 109 ft | 4 kts | 273° |
| 2026-04-28 14:29 | 51.71224 | 46.18800 | 111 ft | 64 kts | 272° |
| 2026-04-28 14:30 | 51.71248 | 46.17747 | 108 ft | 121 kts | 272° |
| 2026-04-28 14:30 | 51.71290 | 46.16179 | 312 ft | 144 kts | 272° |
| 2026-04-28 14:30 | 51.71354 | 46.14670 | 1088 ft | 131 kts | 270° |
| 2026-04-28 14:30 | 51.71429 | 46.13228 | 1807 ft | 128 kts | 271° |
| 2026-04-28 14:31 | 51.71489 | 46.11719 | 2258 ft | 144 kts | 267° |
| 2026-04-28 14:31 | 51.71492 | 46.09998 | 2729 ft | 163 kts | 267° |
| 2026-04-28 14:31 | 51.71492 | 46.08077 | 3310 ft | 180 kts | 268° |
| 2026-04-28 14:31 | 51.71512 | 46.05954 | 3860 ft | 199 kts | 269° |
| 2026-04-28 14:32 | 51.71556 | 46.03616 | 4468 ft | 215 kts | 271° |
| 2026-04-28 14:32 | 51.71930 | 46.01220 | 5193 ft | 233 kts | 292° |
| 2026-04-28 14:32 | 51.73039 | 45.99131 | 5893 ft | 259 kts | 320° |
| 2026-04-28 14:32 | 51.74630 | 45.97739 | 6849 ft | 266 kts | 327° |
| 2026-04-28 14:33 | 51.76285 | 45.96380 | 7887 ft | 268 kts | 327° |
| 2026-04-28 14:33 | 51.77949 | 45.94998 | 8886 ft | 271 kts | 326° |
| 2026-04-28 14:33 | 51.79635 | 45.93577 | 9869 ft | 275 kts | 326° |
| 2026-04-28 14:33 | 51.81342 | 45.92125 | 10672 ft | 284 kts | 326° |
| 2026-04-28 14:34 | 51.85097 | 45.88888 | 11494 ft | 324 kts | 326° |
| 2026-04-28 14:34 | 51.87105 | 45.87174 | 12361 ft | 328 kts | 326° |
| 2026-04-28 14:34 | 51.89138 | 45.85442 | 13228 ft | 332 kts | 326° |
| 2026-04-28 14:35 | 51.91190 | 45.83690 | 14079 ft | 335 kts | 325° |
| 2026-04-28 14:35 | 51.93254 | 45.81924 | 14867 ft | 337 kts | 324° |
| 2026-04-28 14:35 | 51.95337 | 45.80136 | 15651 ft | 339 kts | 323° |
| 2026-04-28 14:35 | 51.97228 | 45.77950 | 16403 ft | 329 kts | 308° |
| 2026-04-28 14:36 | 51.98615 | 45.75084 | 17194 ft | 319 kts | 293° |
| 2026-04-28 14:36 | 51.99472 | 45.71822 | 18017 ft | 313 kts | 283° |
| 2026-04-28 14:36 | 52.00184 | 45.68475 | 18757 ft | 315 kts | 283° |
| 2026-04-28 14:36 | 52.00907 | 45.65107 | 19361 ft | 318 kts | 283° |
| 2026-04-28 14:37 | 52.01641 | 45.61696 | 20001 ft | 321 kts | 283° |
| 2026-04-28 14:37 | 52.02382 | 45.58257 | 20628 ft | 324 kts | 283° |
| 2026-04-28 14:37 | 52.03121 | 45.54822 | 21210 ft | 328 kts | 282° |
| 2026-04-28 14:37 | 52.03877 | 45.51305 | 21828 ft | 331 kts | 282° |
| 2026-04-28 14:38 | 52.04638 | 45.47753 | 22434 ft | 334 kts | 282° |
| 2026-04-28 14:38 | 52.05405 | 45.44172 | 23063 ft | 337 kts | 282° |
| 2026-04-28 14:38 | 52.06177 | 45.40559 | 23649 ft | 340 kts | 282° |
| 2026-04-28 14:38 | 52.06955 | 45.36905 | 24139 ft | 344 kts | 282° |
| 2026-04-28 14:39 | 52.07739 | 45.33218 | 24610 ft | 347 kts | 282° |
| 2026-04-28 14:39 | 52.08529 | 45.29497 | 25096 ft | 350 kts | 281° |
| 2026-04-28 14:39 | 52.09325 | 45.25736 | 25569 ft | 353 kts | 281° |
| 2026-04-28 14:39 | 52.10126 | 45.21945 | 26016 ft | 356 kts | 281° |
| 2026-04-28 14:40 | 52.10934 | 45.18113 | 26455 ft | 359 kts | 281° |
| 2026-04-28 14:40 | 52.11208 | 45.16814 | 26612 ft | 360 kts | 281° |
| 2026-04-28 14:40 | 52.12566 | 45.10352 | 27332 ft | 365 kts | 281° |
| 2026-04-28 14:40 | 52.13389 | 45.06424 | 27730 ft | 368 kts | 281° |
| 2026-04-28 14:41 | 52.14217 | 45.02468 | 28128 ft | 371 kts | 281° |
| 2026-04-28 14:41 | 52.15050 | 44.98473 | 28515 ft | 374 kts | 281° |
| 2026-04-28 14:41 | 52.15889 | 44.94449 | 28893 ft | 377 kts | 281° |
| 2026-04-28 14:41 | 52.16732 | 44.90391 | 29261 ft | 379 kts | 281° |
| 2026-04-28 14:42 | 52.17580 | 44.86304 | 29626 ft | 382 kts | 281° |
| 2026-04-28 14:42 | 52.18451 | 44.82193 | 29976 ft | 387 kts | 283° |
| 2026-04-28 14:42 | 52.19586 | 44.78158 | 30259 ft | 397 kts | 290° |
| 2026-04-28 14:42 | 52.21045 | 44.74330 | 30518 ft | 408 kts | 297° |
| 2026-04-28 14:43 | 52.22859 | 44.70692 | 30798 ft | 420 kts | 304° |
| 2026-04-28 14:43 | 52.24885 | 44.67210 | 31086 ft | 423 kts | 304° |
| 2026-04-28 14:43 | 52.26908 | 44.63712 | 31427 ft | 424 kts | 304° |
| 2026-04-28 14:43 | 52.28930 | 44.60197 | 31777 ft | 425 kts | 304° |
| 2026-04-28 14:44 | 52.30952 | 44.56672 | 32124 ft | 426 kts | 304° |
| 2026-04-28 14:44 | 52.32975 | 44.53136 | 32456 ft | 427 kts | 304° |
| 2026-04-28 14:44 | 52.35003 | 44.49586 | 32776 ft | 428 kts | 305° |
| 2026-04-28 14:44 | 52.37037 | 44.46024 | 32939 ft | 428 kts | 305° |
| 2026-04-28 14:45 | 52.39064 | 44.42474 | 32935 ft | 427 kts | 305° |
| 2026-04-28 14:45 | 52.43114 | 44.35368 | 32935 ft | 426 kts | 305° |
| 2026-04-28 14:46 | 52.47156 | 44.28252 | 32925 ft | 426 kts | 305° |
| 2026-04-28 14:46 | 52.51200 | 44.21113 | 32922 ft | 427 kts | 305° |
| 2026-04-28 14:47 | 52.55209 | 44.14015 | 32916 ft | 427 kts | 305° |
| 2026-04-28 14:47 | 52.59244 | 44.06850 | 32914 ft | 427 kts | 305° |
| 2026-04-28 14:48 | 52.63275 | 43.99671 | 32909 ft | 427 kts | 305° |
| 2026-04-28 14:48 | 52.67298 | 43.92485 | 32908 ft | 427 kts | 305° |
| 2026-04-28 14:49 | 52.71321 | 43.85270 | 32903 ft | 427 kts | 305° |
| 2026-04-28 14:49 | 52.75288 | 43.77981 | 32897 ft | 427 kts | 304° |
| 2026-04-28 14:50 | 52.79249 | 43.70665 | 32894 ft | 427 kts | 305° |
| 2026-04-28 14:50 | 52.83212 | 43.63341 | 32896 ft | 428 kts | 305° |
| 2026-04-28 14:51 | 52.87179 | 43.55996 | 32891 ft | 428 kts | 305° |
| 2026-04-28 14:51 | 52.91142 | 43.48634 | 32888 ft | 428 kts | 305° |
| 2026-04-28 14:52 | 52.94436 | 43.42499 | 32890 ft | 429 kts | 305° |
| 2026-04-28 14:52 | 52.98399 | 43.35098 | 32889 ft | 429 kts | 305° |
| 2026-04-28 14:53 | 53.02361 | 43.27676 | 32888 ft | 430 kts | 305° |
| 2026-04-28 14:53 | 53.06329 | 43.20220 | 32891 ft | 431 kts | 305° |
| 2026-04-28 14:54 | 53.10293 | 43.12749 | 32886 ft | 431 kts | 305° |
| 2026-04-28 14:54 | 53.14261 | 43.05255 | 32887 ft | 432 kts | 306° |
| 2026-04-28 14:55 | 53.18335 | 42.97870 | 32888 ft | 433 kts | 307° |
| 2026-04-28 14:55 | 53.22439 | 42.90501 | 32880 ft | 433 kts | 307° |
| 2026-04-28 14:56 | 53.26527 | 42.83095 | 32879 ft | 434 kts | 307° |
| 2026-04-28 14:56 | 53.30604 | 42.75666 | 32873 ft | 434 kts | 307° |
| 2026-04-28 14:57 | 53.34659 | 42.68256 | 32870 ft | 435 kts | 307° |
| 2026-04-28 14:57 | 53.38741 | 42.60773 | 32866 ft | 435 kts | 307° |
| 2026-04-28 14:58 | 53.42790 | 42.53236 | 32864 ft | 433 kts | 303° |
| 2026-04-28 14:58 | 53.45913 | 42.44753 | 32860 ft | 424 kts | 290° |
| 2026-04-28 14:59 | 53.47793 | 42.35444 | 32858 ft | 421 kts | 283° |
| 2026-04-28 14:59 | 53.49463 | 42.26021 | 32862 ft | 422 kts | 283° |
| 2026-04-28 15:00 | 53.51127 | 42.16574 | 32863 ft | 422 kts | 283° |
| 2026-04-28 15:00 | 53.52780 | 42.07091 | 32867 ft | 423 kts | 283° |
| 2026-04-28 15:01 | 53.54426 | 41.97585 | 32867 ft | 424 kts | 283° |
| 2026-04-28 15:01 | 53.57595 | 41.79136 | 32868 ft | 425 kts | 283° |
| 2026-04-28 15:02 | 53.64125 | 41.40501 | 32865 ft | 426 kts | 283° |